Time;durP1;ratioP1;P1;durP2;ratioP2;P2;SDS_P1;SDS_P2;PMS_P1;PMS_P2;Temp;Humidity;BMP_temperature;BMP_pressure;BME280_temperature;BME280_humidity;BME280_pressure;Samples;Min_cycle;Max_cycle;Signal;HPM_P1;HPM_P2
2020/04/27 00:00:40;;;;;;;6.4;4.2;;;;;;;;;;;;;
2020/04/27 00:03:05;;;;;;;5.8;4.2;;;;;;;;;;;;;
2020/04/27 00:05:30;;;;;;;5.7;3.8;;;;;;;;;;;;;
2020/04/27 00:07:56;;;;;;;5.6;4.3;;;;;;;;;;;;;
2020/04/27 00:10:21;;;;;;;7.3;5.2;;;;;;;;;;;;;
2020/04/27 00:12:46;;;;;;;6.9;4.5;;;;;;;;;;;;;
2020/04/27 00:15:11;;;;;;;5.9;4.6;;;;;;;;;;;;;
2020/04/27 00:17:36;;;;;;;7.9;4.4;;;;;;;;;;;;;
2020/04/27 00:20:01;;;;;;;5.5;4.3;;;;;;;;;;;;;
2020/04/27 00:22:27;;;;;;;7.1;4.6;;;;;;;;;;;;;
2020/04/27 00:24:52;;;;;;;7.8;4.3;;;;;;;;;;;;;
2020/04/27 00:27:17;;;;;;;9.1;4.3;;;;;;;;;;;;;
2020/04/27 00:29:42;;;;;;;7.2;4.1;;;;;;;;;;;;;
2020/04/27 00:32:07;;;;;;;9.5;4.1;;;;;;;;;;;;;
2020/04/27 00:34:32;;;;;;;5;3.9;;;;;;;;;;;;;
2020/04/27 00:36:57;;;;;;;7.6;4.4;;;;;;;;;;;;;
2020/04/27 00:39:22;;;;;;;5.3;4.2;;;;;;;;;;;;;
2020/04/27 00:41:47;;;;;;;5.5;3.8;;;;;;;;;;;;;
2020/04/27 00:44:13;;;;;;;5;3.9;;;;;;;;;;;;;
2020/04/27 00:46:38;;;;;;;5.4;4;;;;;;;;;;;;;
2020/04/27 00:49:03;;;;;;;5.6;4.1;;;;;;;;;;;;;
2020/04/27 00:51:28;;;;;;;7.4;4.3;;;;;;;;;;;;;
2020/04/27 00:53:53;;;;;;;7.5;4.4;;;;;;;;;;;;;
2020/04/27 00:56:18;;;;;;;8.1;4.4;;;;;;;;;;;;;
2020/04/27 00:58:45;;;;;;;6.4;4.4;;;;;;;;;;;;;
2020/04/27 01:03:49;;;;;;;6.2;4.5;;;;;;;;;;;;;
2020/04/27 01:06:05;;;;;;;4.7;4.2;;;;;;;;;;;;;
2020/04/27 01:08:33;;;;;;;6.3;4.4;;;;;;;;;;;;;
2020/04/27 01:11:00;;;;;;;7.6;4.5;;;;;;;;;;;;;
2020/04/27 01:13:25;;;;;;;8.2;4.6;;;;;;;;;;;;;
2020/04/27 01:15:58;;;;;;;7.6;5.5;;;;;;;;;;;;;
2020/04/27 01:18:23;;;;;;;7.8;5.1;;;;;;;;;;;;;
2020/04/27 01:20:48;;;;;;;6.2;4.9;;;;;;;;;;;;;
2020/04/27 01:23:13;;;;;;;6.8;4.8;;;;;;;;;;;;;
2020/04/27 01:25:38;;;;;;;7.3;4.8;;;;;;;;;;;;;
2020/04/27 01:28:03;;;;;;;6;5.1;;;;;;;;;;;;;
2020/04/27 01:30:28;;;;;;;5.9;4.6;;;;;;;;;;;;;
2020/04/27 01:32:53;;;;;;;5;4.4;;;;;;;;;;;;;
2020/04/27 01:35:19;;;;;;;6.7;4.3;;;;;;;;;;;;;
2020/04/27 01:37:44;;;;;;;4.5;4;;;;;;;;;;;;;
2020/04/27 01:40:09;;;;;;;5.3;4;;;;;;;;;;;;;
2020/04/27 01:42:34;;;;;;;6;4.1;;;;;;;;;;;;;
2020/04/27 01:44:59;;;;;;;5.8;4.6;;;;;;;;;;;;;
2020/04/27 01:47:24;;;;;;;5.6;4.8;;;;;;;;;;;;;
2020/04/27 01:49:49;;;;;;;6.8;4.7;;;;;;;;;;;;;
2020/04/27 01:52:14;;;;;;;5.3;4.8;;;;;;;;;;;;;
2020/04/27 01:54:39;;;;;;;6.2;4.7;;;;;;;;;;;;;
2020/04/27 01:57:05;;;;;;;7;4.8;;;;;;;;;;;;;
2020/04/27 01:59:30;;;;;;;6.6;4.6;;;;;;;;;;;;;
2020/04/27 02:01:55;;;;;;;6.6;4.4;;;;;;;;;;;;;
2020/04/27 02:04:20;;;;;;;6.1;4.7;;;;;;;;;;;;;
2020/04/27 02:06:46;;;;;;;5.8;4.5;;;;;;;;;;;;;
2020/04/27 02:09:11;;;;;;;7;5;;;;;;;;;;;;;
2020/04/27 02:11:36;;;;;;;5.8;4.4;;;;;;;;;;;;;
2020/04/27 02:14:01;;;;;;;5.5;4.7;;;;;;;;;;;;;
2020/04/27 02:16:33;;;;;;;5.5;4.6;;;;;;;;;;;;;
2020/04/27 02:18:54;;;;;;;5.7;4.6;;;;;;;;;;;;;
2020/04/27 02:21:19;;;;;;;9;4.9;;;;;;;;;;;;;
2020/04/27 02:23:42;;;;;;;5.6;4.7;;;;;;;;;;;;;
2020/04/27 02:26:07;;;;;;;6.2;4.6;;;;;;;;;;;;;
2020/04/27 02:28:32;;;;;;;5.5;4.8;;;;;;;;;;;;;
2020/04/27 02:31:27;;;;;;;6.7;5.2;;;;;;;;;;;;;
2020/04/27 02:33:23;;;;;;;6.3;5.2;;;;;;;;;;;;;
2020/04/27 02:35:52;;;;;;;7;4.9;;;;;;;;;;;;;
2020/04/27 02:38:13;;;;;;;5.1;4.4;;;;;;;;;;;;;
2020/04/27 02:40:38;;;;;;;5.6;4.5;;;;;;;;;;;;;
2020/04/27 02:43:03;;;;;;;4.9;4.3;;;;;;;;;;;;;
2020/04/27 02:45:28;;;;;;;5.9;4.6;;;;;;;;;;;;;
2020/04/27 02:47:53;;;;;;;7.1;4.8;;;;;;;;;;;;;
2020/04/27 02:50:19;;;;;;;7.5;4.9;;;;;;;;;;;;;
2020/04/27 02:52:44;;;;;;;6.5;5.5;;;;;;;;;;;;;
2020/04/27 02:55:09;;;;;;;7.8;6;;;;;;;;;;;;;
2020/04/27 02:57:34;;;;;;;7.7;6.1;;;;;;;;;;;;;
2020/04/27 02:59:59;;;;;;;7.3;6;;;;;;;;;;;;;
2020/04/27 03:02:25;;;;;;;7.4;6;;;;;;;;;;;;;
2020/04/27 03:04:50;;;;;;;8.1;5.7;;;;;;;;;;;;;
2020/04/27 03:07:15;;;;;;;7.9;6;;;;;;;;;;;;;
2020/04/27 03:09:40;;;;;;;7.1;6.1;;;;;;;;;;;;;
2020/04/27 03:12:05;;;;;;;8.5;5.8;;;;;;;;;;;;;
2020/04/27 03:14:30;;;;;;;7.1;6.2;;;;;;;;;;;;;
2020/04/27 03:16:56;;;;;;;6.8;6;;;;;;;;;;;;;
2020/04/27 03:19:48;;;;;;;7;5.4;;;;;;;;;;;;;
2020/04/27 03:21:57;;;;;;;6.6;5.9;;;;;;;;;;;;;
2020/04/27 03:24:26;;;;;;;7.1;5.6;;;;;;;;;;;;;
2020/04/27 03:29:16;;;;;;;7.9;6.1;;;;;;;;;;;;;
2020/04/27 03:31:49;;;;;;;7.3;6;;;;;;;;;;;;;
2020/04/27 03:34:03;;;;;;;6.8;6.1;;;;;;;;;;;;;
2020/04/27 03:36:30;;;;;;;7.6;5.8;;;;;;;;;;;;;
2020/04/27 03:41:31;;;;;;;8.7;5.7;;;;;;;;;;;;;
2020/04/27 03:46:04;;;;;;;8.2;6.3;;;;;;;;;;;;;
2020/04/27 03:48:24;;;;;;;6.8;6.1;;;;;;;;;;;;;
2020/04/27 03:50:49;;;;;;;7.1;6.5;;;;;;;;;;;;;
2020/04/27 03:53:14;;;;;;;7.1;6.4;;;;;;;;;;;;;
2020/04/27 03:55:39;;;;;;;8.5;6.7;;;;;;;;;;;;;
2020/04/27 03:58:04;;;;;;;8.5;6.5;;;;;;;;;;;;;
2020/04/27 04:02:32;;;;;;;7.5;6.7;;;;;;;11.74;84.07227;932.6136;;;;
2020/04/27 04:04:57;;;;;;;7.8;6.7;;;;;;;11.71;83.89453;932.6074;;;;
2020/04/27 04:07:22;;;;;;;9;7;;;;;;;11.71;83.72461;932.6536;;;;
2020/04/27 04:09:47;;;;;;;8.2;7;;;;;;;11.74;83.98047;932.6997;;;;
2020/04/27 04:12:12;;;;;;;7.3;6.6;;;;;;;11.78;83.96582;932.7402;;;;
2020/04/27 04:14:37;;;;;;;8.4;7.1;;;;;;;11.69;84.62598;932.7685;;;;
2020/04/27 04:17:03;;;;;;;10;7;;;;;;;11.68;84.80566;932.838;;;;
2020/04/27 04:19:28;;;;;;;7.9;7.1;;;;;;;11.61;84.74609;932.8395;;;;
2020/04/27 04:21:53;;;;;;;9.8;7.1;;;;;;;11.59;84.53613;932.8929;;;;
2020/04/27 04:24:18;;;;;;;8.3;7.1;;;;;;;;;;;;;
2020/04/27 04:26:43;;;;;;;8.5;7.4;;;;;;;;;;;;;
2020/04/27 04:29:08;;;;;;;8;7.2;;;;;;;;;;;;;
2020/04/27 04:31:34;;;;;;;8.4;7;;;;;;;;;;;;;
2020/04/27 04:33:59;;;;;;;7.8;6.6;;;;;;;;;;;;;
2020/04/27 04:36:25;;;;;;;7.8;6.7;;;;;;;;;;;;;
2020/04/27 04:38:50;;;;;;;8.1;7.1;;;;;;;;;;;;;
2020/04/27 04:41:16;;;;;;;10.6;7.8;;;;;;;;;;;;;
2020/04/27 04:43:41;;;;;;;9.9;7.4;;;;;;;;;;;;;
2020/04/27 04:46:07;;;;;;;8.9;7.1;;;;;;;;;;;;;
2020/04/27 04:48:32;;;;;;;8;7.2;;;;;;;;;;;;;
2020/04/27 04:50:57;;;;;;;8.3;7.5;;;;;;;;;;;;;
2020/04/27 04:53:22;;;;;;;7.9;7.2;;;;;;;;;;;;;
2020/04/27 04:55:47;;;;;;;8.1;7.2;;;;;;;;;;;;;
2020/04/27 04:58:13;;;;;;;8.5;6.9;;;;;;;;;;;;;
2020/04/27 05:00:38;;;;;;;11.5;7.7;;;;;;;;;;;;;
2020/04/27 05:03:04;;;;;;;9.5;7.5;;;;;;;;;;;;;
2020/04/27 05:05:29;;;;;;;8;6.9;;;;;;;;;;;;;
2020/04/27 05:07:54;;;;;;;8.1;6.8;;;;;;;;;;;;;
2020/04/27 05:10:20;;;;;;;8.9;7;;;;;;;;;;;;;
2020/04/27 05:12:45;;;;;;;8;6.6;;;;;;;;;;;;;
2020/04/27 05:15:10;;;;;;;8;6.6;;;;;;;;;;;;;
2020/04/27 05:17:35;;;;;;;8.8;7.4;;;;;;;;;;;;;
2020/04/27 05:20:01;;;;;;;9.3;6.2;;;;;;;;;;;;;
2020/04/27 05:22:26;;;;;;;8;6.8;;;;;;;;;;;;;
2020/04/27 05:24:52;;;;;;;10.1;6.9;;;;;;;;;;;;;
2020/04/27 05:27:16;;;;;;;7.8;7.1;;;;;;;;;;;;;
2020/04/27 05:29:42;;;;;;;7.8;7;;;;;;;;;;;;;
2020/04/27 05:32:07;;;;;;;8.7;7.2;;;;;;;;;;;;;
2020/04/27 05:34:32;;;;;;;8.3;7.5;;;;;;;;;;;;;
2020/04/27 05:36:58;;;;;;;8.4;7.1;;;;;;;;;;;;;
2020/04/27 05:39:23;;;;;;;8.1;7.3;;;;;;;;;;;;;
2020/04/27 05:41:49;;;;;;;8.5;7.3;;;;;;;;;;;;;
2020/04/27 05:44:14;;;;;;;8.3;7.1;;;;;;;;;;;;;
2020/04/27 05:46:39;;;;;;;8.5;6.8;;;;;;;;;;;;;
2020/04/27 05:49:04;;;;;;;7;6.2;;;;;;;;;;;;;
2020/04/27 05:51:30;;;;;;;7.2;6.1;;;;;;;;;;;;;
2020/04/27 05:53:56;;;;;;;8;6.3;;;;;;;;;;;;;
2020/04/27 05:56:20;;;;;;;7.4;6.4;;;;;;;;;;;;;
2020/04/27 05:58:45;;;;;;;8.9;6.4;;;;;;;;;;;;;
2020/04/27 06:01:15;;;;;;;7.7;6.9;;;;;;;;;;;;;
2020/04/27 06:03:35;;;;;;;7.8;6.9;;;;;;;;;;;;;
2020/04/27 06:06:00;;;;;;;9.6;7.4;;;;;;;;;;;;;
2020/04/27 06:08:25;;;;;;;8.3;6.9;;;;;;;;;;;;;
2020/04/27 06:10:51;;;;;;;7.6;6.8;;;;;;;;;;;;;
2020/04/27 06:13:16;;;;;;;7.7;7;;;;;;;;;;;;;
2020/04/27 06:15:41;;;;;;;8.7;7.8;;;;;;;;;;;;;
2020/04/27 06:18:06;;;;;;;8.2;7.4;;;;;;;;;;;;;
2020/04/27 06:20:39;;;;;;;7.9;6.7;;;;;;;;;;;;;
2020/04/27 06:22:56;;;;;;;8.5;6.8;;;;;;;;;;;;;
2020/04/27 06:25:22;;;;;;;7.2;6.5;;;;;;;;;;;;;
2020/04/27 06:27:47;;;;;;;8.7;7.5;;;;;;;;;;;;;
2020/04/27 06:30:12;;;;;;;11.1;8.4;;;;;;;;;;;;;
2020/04/27 06:32:37;;;;;;;12.3;8.6;;;;;;;;;;;;;
2020/04/27 06:35:02;;;;;;;15;9.7;;;;;;;;;;;;;
2020/04/27 06:37:28;;;;;;;11.1;8.2;;;;;;;;;;;;;
2020/04/27 06:39:53;;;;;;;8.4;6.8;;;;;;;;;;;;;
2020/04/27 06:42:18;;;;;;;8.3;7.4;;;;;;;;;;;;;
2020/04/27 06:44:43;;;;;;;9.1;7.3;;;;;;;;;;;;;
2020/04/27 06:47:09;;;;;;;11.2;7.6;;;;;;;;;;;;;
2020/04/27 06:49:34;;;;;;;7.9;7.1;;;;;;;;;;;;;
2020/04/27 06:51:59;;;;;;;7.2;6.1;;;;;;;;;;;;;
2020/04/27 06:54:24;;;;;;;7.9;7.1;;;;;;;;;;;;;
2020/04/27 06:56:49;;;;;;;7.7;6.9;;;;;;;;;;;;;
2020/04/27 06:59:14;;;;;;;7.2;6.5;;;;;;;;;;;;;
2020/04/27 07:01:40;;;;;;;9.2;5.8;;;;;;;;;;;;;
2020/04/27 07:04:05;;;;;;;6.8;5.7;;;;;;;;;;;;;
2020/04/27 07:06:30;;;;;;;8.7;6.4;;;;;;;;;;;;;
2020/04/27 07:08:55;;;;;;;9.1;5.7;;;;;;;;;;;;;
2020/04/27 07:11:21;;;;;;;8.1;5.5;;;;;;;;;;;;;
2020/04/27 07:13:46;;;;;;;5.1;4.6;;;;;;;;;;;;;
2020/04/27 07:16:11;;;;;;;8.2;5.5;;;;;;;;;;;;;
2020/04/27 07:18:36;;;;;;;5.8;5;;;;;;;;;;;;;
2020/04/27 07:21:02;;;;;;;8;5.5;;;;;;;;;;;;;
2020/04/27 07:23:27;;;;;;;5.3;4.3;;;;;;;;;;;;;
2020/04/27 07:25:51;;;;;;;6.4;4.5;;;;;;;;;;;;;
2020/04/27 07:28:17;;;;;;;5.4;4;;;;;;;;;;;;;
2020/04/27 07:30:42;;;;;;;3.4;2.4;;;;;;;;;;;;;
2020/04/27 07:33:07;;;;;;;4.3;2.7;;;;;;;;;;;;;
2020/04/27 07:35:33;;;;;;;5;3;;;;;;;;;;;;;
2020/04/27 07:37:58;;;;;;;5.8;3.7;;;;;;;;;;;;;
2020/04/27 07:40:24;;;;;;;7.6;4.9;;;;;;;;;;;;;
2020/04/27 07:42:49;;;;;;;10.2;5.5;;;;;;;;;;;;;
2020/04/27 07:45:14;;;;;;;8.5;5.1;;;;;;;;;;;;;
2020/04/27 07:47:39;;;;;;;3.8;2.9;;;;;;;;;;;;;
2020/04/27 07:50:04;;;;;;;4.7;3.3;;;;;;;;;;;;;
2020/04/27 07:52:30;;;;;;;6.7;3.9;;;;;;;;;;;;;
2020/04/27 07:54:55;;;;;;;6.1;3.2;;;;;;;;;;;;;
2020/04/27 07:57:21;;;;;;;5.1;2.7;;;;;;;;;;;;;
2020/04/27 07:59:46;;;;;;;3.5;2.9;;;;;;;;;;;;;
2020/04/27 08:02:13;;;;;;;3.4;2.7;;;;;;;;;;;;;
2020/04/27 08:04:38;;;;;;;3.1;2.4;;;;;;;;;;;;;
2020/04/27 08:07:03;;;;;;;5.1;2.5;;;;;;;;;;;;;
2020/04/27 08:09:28;;;;;;;4.6;2.5;;;;;;;;;;;;;
2020/04/27 08:11:53;;;;;;;4.8;2.7;;;;;;;;;;;;;
2020/04/27 08:14:18;;;;;;;3.3;2.5;;;;;;;;;;;;;
2020/04/27 08:16:44;;;;;;;3.6;2.6;;;;;;;;;;;;;
2020/04/27 08:19:09;;;;;;;2.9;2.1;;;;;;;;;;;;;
2020/04/27 08:21:34;;;;;;;3.1;2.5;;;;;;;;;;;;;
2020/04/27 08:23:59;;;;;;;3.1;2.2;;;;;;;;;;;;;
2020/04/27 08:26:24;;;;;;;2.8;2.1;;;;;;;;;;;;;
2020/04/27 08:28:49;;;;;;;2.8;2.1;;;;;;;;;;;;;
2020/04/27 08:31:14;;;;;;;4.7;2.1;;;;;;;;;;;;;
2020/04/27 08:33:40;;;;;;;3.5;2.1;;;;;;;;;;;;;
2020/04/27 08:36:07;;;;;;;3.7;2.3;;;;;;;;;;;;;
2020/04/27 08:38:30;;;;;;;3.9;2.1;;;;;;;;;;;;;
2020/04/27 08:40:56;;;;;;;3.1;2.2;;;;;;;;;;;;;
2020/04/27 08:43:21;;;;;;;3.7;2.3;;;;;;;;;;;;;
2020/04/27 08:45:46;;;;;;;4;2.3;;;;;;;;;;;;;
2020/04/27 08:48:11;;;;;;;3.3;2;;;;;;;;;;;;;
2020/04/27 08:50:36;;;;;;;2.9;2.1;;;;;;;;;;;;;
2020/04/27 08:53:01;;;;;;;3;1.9;;;;;;;;;;;;;
2020/04/27 08:55:27;;;;;;;2.2;1.6;;;;;;;;;;;;;
2020/04/27 08:57:52;;;;;;;4.7;1.7;;;;;;;;;;;;;
2020/04/27 09:03:23;;;;;;;7.2;4;;;;;;;;;;;;;
2020/04/27 09:05:14;;;;;;;6.5;2.7;;;;;;;;;;;;;
2020/04/27 09:10:17;;;;;;;6.2;3;;;;;;;;;;;;;
2020/04/27 09:17:22;;;;;;;6.9;3.8;;;;;;;;;;;;;
2020/04/27 09:27:22;;;;;;;9.7;3.5;;;;;;;;;;;;;
2020/04/27 09:29:28;;;;;;;5.9;3.2;;;;;;;;;;;;;
2020/04/27 09:31:54;;;;;;;8;3.4;;;;;;;;;;;;;
2020/04/27 09:34:23;;;;;;;6;3;;;;;;;;;;;;;
2020/04/27 09:36:43;;;;;;;6.5;3.2;;;;;;;;;;;;;
2020/04/27 09:39:22;;;;;;;5.6;2.7;;;;;;;;;;;;;
2020/04/27 09:41:31;;;;;;;3.7;2.5;;;;;;;;;;;;;
2020/04/27 09:44:42;;;;;;;3.7;2.8;;;;;;;;;;;;;
2020/04/27 09:46:43;;;;;;;8;2.7;;;;;;;;;;;;;
2020/04/27 09:48:49;;;;;;;17.8;3.7;;;;;;;;;;;;;
2020/04/27 09:51:15;;;;;;;9.4;3.2;;;;;;;;;;;;;
2020/04/27 09:53:38;;;;;;;5;2.5;;;;;;;;;;;;;
2020/04/27 10:01:46;;;;;;;2.6;2.1;;;;;;;;;;;;;
2020/04/27 10:03:30;;;;;;;4.1;2.3;;;;;;;;;;;;;
2020/04/27 10:08:42;;;;;;;4.8;2.2;;;;;;;;;;;;;
2020/04/27 10:10:44;;;;;;;4.3;2.1;;;;;;;;;;;;;
2020/04/27 10:13:13;;;;;;;3;1.6;;;;;;;;;;;;;
2020/04/27 10:15:29;;;;;;;2.4;1.6;;;;;;;;;;;;;
2020/04/27 10:17:49;;;;;;;3;1.5;;;;;;;;;;;;;
2020/04/27 10:21:45;;;;;;;1.9;1.5;;;;;;;;;;;;;
2020/04/27 10:25:07;;;;;;;3;1.5;;;;;;;;;;;;;
2020/04/27 10:28:07;;;;;;;4;1.8;;;;;;;;;;;;;
2020/04/27 10:30:03;;;;;;;6.5;2;;;;;;;;;;;;;
2020/04/27 10:34:53;;;;;;;1.6;1.2;;;;;;;;;;;;;
2020/04/27 10:37:17;;;;;;;3.4;1.2;;;;;;;;;;;;;
2020/04/27 10:43:00;;;;;;;2.6;1.3;;;;;;;;;;;;;
2020/04/27 10:44:32;;;;;;;2.4;1;;;;;;;;;;;;;
2020/04/27 10:46:54;;;;;;;1.5;1;;;;;;;;;;;;;
2020/04/27 10:50:05;;;;;;;1.9;1.1;;;;;;;;;;;;;
2020/04/27 10:54:59;;;;;;;2.5;0.9;;;;;;;;;;;;;
2020/04/27 10:56:34;;;;;;;3.5;0.9;;;;;;;;;;;;;
2020/04/27 10:59:49;;;;;;;2.3;0.9;;;;;;;;;;;;;
2020/04/27 11:01:20;;;;;;;1.6;0.9;;;;;;;;;;;;;
2020/04/27 11:03:53;;;;;;;1.7;0.9;;;;;;;;;;;;;
2020/04/27 11:06:19;;;;;;;2.1;0.8;;;;;;;;;;;;;
2020/04/27 11:11:02;;;;;;;1.1;0.8;;;;;;;;;;;;;
2020/04/27 11:18:25;;;;;;;2.8;0.9;;;;;;;;;;;;;
2020/04/27 11:20:52;;;;;;;1.8;0.9;;;;;;;;;;;;;
2020/04/27 11:23:15;;;;;;;1.5;0.9;;;;;;;;;;;;;
2020/04/27 11:28:01;;;;;;;1.7;0.8;;;;;;;;;;;;;
2020/04/27 11:30:24;;;;;;;1.9;0.7;;;;;;;;;;;;;
2020/04/27 11:32:52;;;;;;;1.3;0.7;;;;;;;;;;;;;
2020/04/27 11:35:20;;;;;;;2.3;0.8;;;;;;;;;;;;;
2020/04/27 11:37:42;;;;;;;1.1;0.8;;;;;;;;;;;;;
2020/04/27 11:42:46;;;;;;;2.9;0.8;;;;;;;;;;;;;
2020/04/27 11:47:28;;;;;;;1;0.8;;;;;;;;;;;;;
2020/04/27 11:52:23;;;;;;;1.5;0.8;;;;;;;;;;;;;
2020/04/27 11:55:27;;;;;;;1;0.7;;;;;;;;;;;;;
2020/04/27 11:57:22;;;;;;;1.2;0.8;;;;;;;;;;;;;
2020/04/27 12:04:32;;;;;;;2.2;0.8;;;;;;;;;;;;;
2020/04/27 12:07:07;;;;;;;1.9;0.8;;;;;;;;;;;;;
2020/04/27 12:09:20;;;;;;;1.1;0.7;;;;;;;;;;;;;
2020/04/27 12:23:55;;;;;;;1.4;0.7;;;;;;;;;;;;;
2020/04/27 12:31:32;;;;;;;3.2;0.8;;;;;;;;;;;;;
2020/04/27 12:33:55;;;;;;;2.1;0.7;;;;;;;;;;;;;
2020/04/27 12:36:11;;;;;;;2.5;1.1;;;;;;;;;;;;;
2020/04/27 12:38:36;;;;;;;2.9;0.9;;;;;;;;;;;;;
2020/04/27 12:41:02;;;;;;;2;1;;;;;;;;;;;;;
2020/04/27 12:43:27;;;;;;;4.8;0.9;;;;;;;;;;;;;
2020/04/27 12:45:54;;;;;;;4.5;1.1;;;;;;;;;;;;;
2020/04/27 12:48:20;;;;;;;3.3;0.9;;;;;;;;;;;;;
2020/04/27 12:50:45;;;;;;;1.1;0.7;;;;;;;;;;;;;
2020/04/27 12:53:11;;;;;;;2.2;0.9;;;;;;;;;;;;;
2020/04/27 12:55:36;;;;;;;1.3;0.7;;;;;;;;;;;;;
2020/04/27 12:58:02;;;;;;;2.4;0.9;;;;;;;;;;;;;
2020/04/27 13:00:27;;;;;;;2.6;0.9;;;;;;;;;;;;;
2020/04/27 13:02:52;;;;;;;1.9;0.9;;;;;;;;;;;;;
2020/04/27 13:05:17;;;;;;;3.1;1;;;;;;;;;;;;;
2020/04/27 13:07:44;;;;;;;1.1;0.7;;;;;;;;;;;;;
2020/04/27 13:10:09;;;;;;;4.5;1.1;;;;;;;;;;;;;
2020/04/27 13:12:34;;;;;;;3;0.8;;;;;;;;;;;;;
2020/04/27 13:14:59;;;;;;;1.6;0.9;;;;;;;;;;;;;
2020/04/27 13:17:24;;;;;;;1.2;0.8;;;;;;;;;;;;;
2020/04/27 13:19:49;;;;;;;1.1;0.7;;;;;;;;;;;;;
2020/04/27 13:22:15;;;;;;;0.9;0.8;;;;;;;;;;;;;
2020/04/27 13:24:40;;;;;;;1.4;0.9;;;;;;;;;;;;;
2020/04/27 13:27:05;;;;;;;1.8;1;;;;;;;;;;;;;
2020/04/27 13:29:31;;;;;;;1.7;1;;;;;;;;;;;;;
2020/04/27 13:31:56;;;;;;;1.6;0.9;;;;;;;;;;;;;
2020/04/27 13:34:22;;;;;;;1.6;0.8;;;;;;;;;;;;;
2020/04/27 13:36:48;;;;;;;1.4;1;;;;;;;;;;;;;
2020/04/27 13:39:13;;;;;;;2;0.9;;;;;;;;;;;;;
2020/04/27 13:41:38;;;;;;;2.3;1.1;;;;;;;;;;;;;
2020/04/27 13:44:05;;;;;;;2.3;0.9;;;;;;;;;;;;;
2020/04/27 13:46:30;;;;;;;1.5;0.9;;;;;;;;;;;;;
2020/04/27 13:48:55;;;;;;;1.3;0.9;;;;;;;;;;;;;
2020/04/27 13:51:20;;;;;;;2.3;1.1;;;;;;;;;;;;;
2020/04/27 13:53:45;;;;;;;1.8;1.1;;;;;;;;;;;;;
2020/04/27 13:56:10;;;;;;;1.3;0.9;;;;;;;;;;;;;
2020/04/27 13:58:36;;;;;;;1.2;0.9;;;;;;;;;;;;;
2020/04/27 14:03:26;;;;;;;2.9;1.1;;;;;;;;;;;;;
2020/04/27 14:05:54;;;;;;;2;0.9;;;;;;;;;;;;;
2020/04/27 14:08:19;;;;;;;2.1;1;;;;;;;;;;;;;
2020/04/27 14:10:44;;;;;;;3.2;0.9;;;;;;;;;;;;;
2020/04/27 14:13:09;;;;;;;1.4;0.9;;;;;;;;;;;;;
2020/04/27 14:15:38;;;;;;;2.2;1;;;;;;;;;;;;;
2020/04/27 14:18:03;;;;;;;2.2;0.9;;;;;;;;;;;;;
2020/04/27 14:20:29;;;;;;;2.7;1;;;;;;;;;;;;;
2020/04/27 14:22:54;;;;;;;1.3;0.9;;;;;;;;;;;;;
2020/04/27 14:25:20;;;;;;;2.7;1.1;;;;;;;;;;;;;
2020/04/27 14:27:45;;;;;;;1;0.9;;;;;;;;;;;;;
2020/04/27 14:30:13;;;;;;;1.8;0.9;;;;;;;;;;;;;
2020/04/27 14:32:38;;;;;;;1.1;0.8;;;;;;;;;;;;;
2020/04/27 14:35:03;;;;;;;2.1;1;;;;;;;;;;;;;
2020/04/27 14:37:28;;;;;;;2.8;1.1;;;;;;;;;;;;;
2020/04/27 14:39:55;;;;;;;2.9;1.2;;;;;;;;;;;;;
2020/04/27 14:42:20;;;;;;;1.6;1.1;;;;;;;;;;;;;
2020/04/27 14:44:46;;;;;;;1.9;1.3;;;;;;;;;;;;;
2020/04/27 14:47:22;;;;;;;2.3;1.1;;;;;;;;;;;;;
2020/04/27 14:49:37;;;;;;;3.5;1.1;;;;;;;;;;;;;
2020/04/27 14:52:02;;;;;;;1.6;1.1;;;;;;;;;;;;;
2020/04/27 14:54:28;;;;;;;1.3;1.1;;;;;;;;;;;;;
2020/04/27 14:56:53;;;;;;;1.1;1;;;;;;;;;;;;;
2020/04/27 14:59:20;;;;;;;3.1;0.9;;;;;;;;;;;;;
2020/04/27 15:04:11;;;;;;;2.7;1.4;;;;;;;;;;;;;
2020/04/27 15:06:36;;;;;;;3.3;1.5;;;;;;;;;;;;;
2020/04/27 15:09:01;;;;;;;3.5;1.5;;;;;;;;;;;;;
2020/04/27 15:11:26;;;;;;;3.3;1.7;;;;;;;;;;;;;
2020/04/27 15:13:52;;;;;;;3;1.4;;;;;;;;;;;;;
2020/04/27 15:16:17;;;;;;;3.1;1.2;;;;;;;;;;;;;
2020/04/27 15:18:43;;;;;;;3.5;1.3;;;;;;;;;;;;;
2020/04/27 15:21:08;;;;;;;1.6;1.1;;;;;;;;;;;;;
2020/04/27 15:23:35;;;;;;;2;1.1;;;;;;;;;;;;;
2020/04/27 15:26:00;;;;;;;2.9;1.3;;;;;;;;;;;;;
2020/04/27 15:28:26;;;;;;;2.4;1.3;;;;;;;;;;;;;
2020/04/27 15:30:51;;;;;;;2.7;1.6;;;;;;;;;;;;;
2020/04/27 15:33:18;;;;;;;2.4;1.3;;;;;;;;;;;;;
2020/04/27 15:35:43;;;;;;;3.5;1.5;;;;;;;;;;;;;
2020/04/27 15:38:08;;;;;;;3;1.4;;;;;;;;;;;;;
2020/04/27 15:40:33;;;;;;;2.4;1.5;;;;;;;;;;;;;
2020/04/27 15:43:00;;;;;;;4;1.4;;;;;;;;;;;;;
2020/04/27 15:45:25;;;;;;;4.2;1.4;;;;;;;;;;;;;
2020/04/27 15:47:50;;;;;;;4.3;1.6;;;;;;;;;;;;;
2020/04/27 15:50:15;;;;;;;3.5;1.5;;;;;;;;;;;;;
2020/04/27 15:52:42;;;;;;;3.1;1.4;;;;;;;;;;;;;
2020/04/27 15:55:07;;;;;;;2.6;1.4;;;;;;;;;;;;;
2020/04/27 15:57:35;;;;;;;2.1;1.4;;;;;;;;;;;;;
2020/04/27 16:00:01;;;;;;;3.6;1.3;;;;;;;;;;;;;
2020/04/27 16:02:27;;;;;;;3.3;1.4;;;;;;;;;;;;;
2020/04/27 16:04:52;;;;;;;4.1;1.4;;;;;;;;;;;;;
2020/04/27 16:07:17;;;;;;;1.9;1.2;;;;;;;;;;;;;
2020/04/27 16:09:42;;;;;;;3;1.4;;;;;;;;;;;;;
2020/04/27 16:12:08;;;;;;;4.8;1.5;;;;;;;;;;;;;
2020/04/27 16:14:33;;;;;;;5.1;1.7;;;;;;;;;;;;;
2020/04/27 16:16:58;;;;;;;6.3;1.7;;;;;;;;;;;;;
2020/04/27 16:19:24;;;;;;;3.2;1.3;;;;;;;;;;;;;
2020/04/27 16:21:51;;;;;;;1.8;1.2;;;;;;;;;;;;;
2020/04/27 16:24:16;;;;;;;1.3;1.1;;;;;;;;;;;;;
2020/04/27 16:26:41;;;;;;;3.9;1.4;;;;;;;;;;;;;
2020/04/27 16:29:07;;;;;;;2.6;1.4;;;;;;;;;;;;;
2020/04/27 16:31:33;;;;;;;3.2;1.3;;;;;;;;;;;;;
2020/04/27 16:33:58;;;;;;;9.4;1.3;;;;;;;;;;;;;
2020/04/27 16:36:24;;;;;;;1.6;1.3;;;;;;;;;;;;;
2020/04/27 16:38:49;;;;;;;4.4;1.4;;;;;;;;;;;;;
2020/04/27 16:41:15;;;;;;;2.5;1.4;;;;;;;;;;;;;
2020/04/27 16:43:40;;;;;;;2;1.4;;;;;;;;;;;;;
2020/04/27 16:46:07;;;;;;;2.4;1.4;;;;;;;;;;;;;
2020/04/27 16:48:33;;;;;;;2.6;1.6;;;;;;;;;;;;;
2020/04/27 16:50:58;;;;;;;3.9;1.6;;;;;;;;;;;;;
2020/04/27 16:53:23;;;;;;;2.1;1.5;;;;;;;;;;;;;
2020/04/27 16:55:49;;;;;;;2.5;1.3;;;;;;;;;;;;;
2020/04/27 16:58:15;;;;;;;3.2;1.4;;;;;;;;;;;;;
2020/04/27 17:00:42;;;;;;;2.7;1.6;;;;;;;;;;;;;
2020/04/27 17:03:08;;;;;;;1.3;1.1;;;;;;;;;;;;;
2020/04/27 17:05:33;;;;;;;3.4;1.6;;;;;;;;;;;;;
2020/04/27 17:07:59;;;;;;;3.2;1.4;;;;;;;;;;;;;
2020/04/27 17:10:24;;;;;;;3.5;1.7;;;;;;;;;;;;;
2020/04/27 17:12:49;;;;;;;3.4;1.5;;;;;;;;;;;;;
2020/04/27 17:15:16;;;;;;;3.5;1.5;;;;;;;;;;;;;
2020/04/27 17:17:41;;;;;;;5.3;2.9;;;;;;;;;;;;;
2020/04/27 17:20:08;;;;;;;3.7;2.3;;;;;;;;;;;;;
2020/04/27 17:22:53;;;;;;;4.4;2;;;;;;;;;;;;;
2020/04/27 17:27:38;;;;;;;5.5;1.9;;;;;;;;;;;;;
2020/04/27 17:30:05;;;;;;;5.8;2;;;;;;;;;;;;;
2020/04/27 17:32:55;;;;;;;4.7;2.3;;;;;;;;;;;;;
2020/04/27 17:35:08;;;;;;;4.2;2.2;;;;;;;;;;;;;
2020/04/27 17:37:21;;;;;;;4;2.1;;;;;;;;;;;;;
2020/04/27 17:39:39;;;;;;;2.5;1.9;;;;;;;;;;;;;
2020/04/27 17:44:41;;;;;;;3.7;2.5;;;;;;;;;;;;;
2020/04/27 17:47:08;;;;;;;3.2;1.8;;;;;;;;;;;;;
2020/04/27 17:54:45;;;;;;;4.6;2.6;;;;;;;;;;;;;
2020/04/27 17:59:00;;;;;;;5;2.4;;;;;;;;;;;;;
2020/04/27 18:01:31;;;;;;;5.4;2.4;;;;;;;;;;;;;
2020/04/27 18:04:21;;;;;;;4.3;2.3;;;;;;;;;;;;;
2020/04/27 18:06:39;;;;;;;3.9;2.4;;;;;;;;;;;;;
2020/04/27 18:11:12;;;;;;;5;2.3;;;;;;;;;;;;;
2020/04/27 18:13:36;;;;;;;4.1;1.9;;;;;;;;;;;;;
2020/04/27 18:16:59;;;;;;;7.4;2.3;;;;;;;;;;;;;
2020/04/27 18:18:37;;;;;;;4.7;2.1;;;;;;;;;;;;;
2020/04/27 18:25:45;;;;;;;3.7;1.8;;;;;;;;;;;;;
2020/04/27 18:28:05;;;;;;;2.8;2;;;;;;;;;;;;;
2020/04/27 18:30:32;;;;;;;3.1;2;;;;;;;;;;;;;
2020/04/27 18:33:32;;;;;;;5.3;2.1;;;;;;;;;;;;;
2020/04/27 18:35:19;;;;;;;3.8;1.7;;;;;;;;;;;;;
2020/04/27 18:37:53;;;;;;;3;2;;;;;;;;;;;;;
2020/04/27 18:41:03;;;;;;;2.8;1.8;;;;;;;;;;;;;
2020/04/27 18:43:15;;;;;;;5.5;1.8;;;;;;;;;;;;;
2020/04/27 18:46:01;;;;;;;2.3;1.7;;;;;;;;;;;;;
2020/04/27 18:48:26;;;;;;;3.9;1.8;;;;;;;;;;;;;
2020/04/27 18:49:53;;;;;;;4.7;1.9;;;;;;;;;;;;;
2020/04/27 18:52:26;;;;;;;5.2;2;;;;;;;;;;;;;
2020/04/27 19:00:18;;;;;;;4.9;1.9;;;;;;;;;;;;;
2020/04/27 19:04:43;;;;;;;3.4;2.2;;;;;;;;;;;;;
2020/04/27 19:11:48;;;;;;;6.3;3.6;;;;;;;;;;;;;
2020/04/27 19:14:01;;;;;;;4.5;2.8;;;;;;;;;;;;;
2020/04/27 19:16:49;;;;;;;4.8;2.7;;;;;;;;;;;;;
2020/04/27 19:18:57;;;;;;;6.6;2.7;;;;;;;;;;;;;
2020/04/27 19:21:26;;;;;;;5.5;2.8;;;;;;;;;;;;;
2020/04/27 19:31:14;;;;;;;5.6;3;;;;;;;;;;;;;
2020/04/27 19:33:43;;;;;;;7.3;3.4;;;;;;;;;;;;;
2020/04/27 19:40:43;;;;;;;5.7;3.3;;;;;;;;;;;;;
2020/04/27 19:45:55;;;;;;;3.4;2.4;;;;;;;;;;;;;
2020/04/27 19:47:59;;;;;;;6.9;2.8;;;;;;;;;;;;;
2020/04/27 19:51:00;;;;;;;5.5;3.1;;;;;;;;;;;;;
2020/04/27 19:55:35;;;;;;;7.2;3.5;;;;;;;;;;;;;
2020/04/27 19:57:49;;;;;;;14.8;7.5;;;;;;;;;;;;;
2020/04/27 20:00:11;;;;;;;5.9;2.9;;;;;;;;;;;;;
2020/04/27 20:07:42;;;;;;;7.6;2.6;;;;;;;;;;;;;
2020/04/27 20:10:02;;;;;;;4.1;2.4;;;;;;;;;;;;;
2020/04/27 20:13:15;;;;;;;5.3;2.6;;;;;;;;;;;;;
2020/04/27 20:17:11;;;;;;;34.2;21.5;;;;;;;;;;;;;
2020/04/27 20:19:47;;;;;;;16.2;9.6;;;;;;;;;;;;;
2020/04/27 20:22:00;;;;;;;8.4;4.3;;;;;;;;;;;;;
2020/04/27 20:24:25;;;;;;;4.6;3.9;;;;;;;;;;;;;
2020/04/27 20:30:46;;;;;;;4.5;3.6;;;;;;;;;;;;;
2020/04/27 20:31:39;;;;;;;4.5;3.1;;;;;;;;;;;;;
2020/04/27 20:34:18;;;;;;;6.7;3.8;;;;;;;;;;;;;
2020/04/27 20:36:39;;;;;;;5.8;3.9;;;;;;;;;;;;;
2020/04/27 20:39:06;;;;;;;4.4;3.2;;;;;;;;;;;;;
2020/04/27 20:41:24;;;;;;;6.5;4.6;;;;;;;;;;;;;
2020/04/27 20:46:17;;;;;;;9.3;6.8;;;;;;;;;;;;;
2020/04/27 20:48:38;;;;;;;9.4;6.1;;;;;;;;;;;;;
2020/04/27 20:51:11;;;;;;;8.6;4.9;;;;;;;;;;;;;
2020/04/27 20:53:44;;;;;;;9.3;5.5;;;;;;;;;;;;;
2020/04/27 20:56:04;;;;;;;6.6;4.4;;;;;;;;;;;;;
2020/04/27 20:58:19;;;;;;;7.1;3.6;;;;;;;;;;;;;
2020/04/27 21:00:45;;;;;;;5.6;3.3;;;;;;;;;;;;;
2020/04/27 21:06:08;;;;;;;4.2;2.9;;;;;;;;;;;;;
2020/04/27 21:08:05;;;;;;;4;2.8;;;;;;;;;;;;;
2020/04/27 21:12:55;;;;;;;3.6;2.7;;;;;;;;;;;;;
2020/04/27 21:17:10;;;;;;;4.6;2.5;;;;;;;;;;;;;
2020/04/27 21:22:33;;;;;;;3.9;2.6;;;;;;;;;;;;;
2020/04/27 21:25:10;;;;;;;3.6;2.4;;;;;;;;;;;;;
2020/04/27 21:32:19;;;;;;;3.2;2.4;;;;;;;;;;;;;
2020/04/27 21:39:47;;;;;;;3;2.2;;;;;;;;;;;;;
2020/04/27 21:42:04;;;;;;;13;4.4;;;;;;;;;;;;;
2020/04/27 21:44:31;;;;;;;4.5;2.7;;;;;;;;;;;;;
2020/04/27 21:49:32;;;;;;;7.7;3.1;;;;;;;;;;;;;
2020/04/27 21:51:51;;;;;;;6;3.3;;;;;;;;;;;;;
2020/04/27 21:54:13;;;;;;;4;3.3;;;;;;;;;;;;;
2020/04/27 21:59:19;;;;;;;4.2;3.2;;;;;;;;;;;;;
2020/04/27 22:03:45;;;;;;;6;3.5;;;;;;;;;;;;;
2020/04/27 22:06:10;;;;;;;4;2.7;;;;;;;;;;;;;
2020/04/27 22:08:36;;;;;;;3.8;3.1;;;;;;;;;;;;;
2020/04/27 22:11:01;;;;;;;5.5;3.1;;;;;;;;;;;;;
2020/04/27 22:13:27;;;;;;;5.8;3;;;;;;;;;;;;;
2020/04/27 22:15:52;;;;;;;4.8;2.6;;;;;;;;;;;;;
2020/04/27 22:18:18;;;;;;;2.4;2.2;;;;;;;;;;;;;
2020/04/27 22:20:43;;;;;;;2.6;2.3;;;;;;;;;;;;;
2020/04/27 22:23:09;;;;;;;3.2;2.2;;;;;;;;;;;;;
2020/04/27 22:25:34;;;;;;;2.5;2.3;;;;;;;;;;;;;
2020/04/27 22:28:01;;;;;;;3.5;2.2;;;;;;;;;;;;;
2020/04/27 22:30:26;;;;;;;2.4;2.1;;;;;;;;;;;;;
2020/04/27 22:32:55;;;;;;;2.4;2.1;;;;;;;;;;;;;
2020/04/27 22:35:20;;;;;;;2.5;1.9;;;;;;;;;;;;;
2020/04/27 22:37:45;;;;;;;3.4;2.2;;;;;;;;;;;;;
2020/04/27 22:40:11;;;;;;;3;2;;;;;;;;;;;;;
2020/04/27 22:42:36;;;;;;;2.5;2.3;;;;;;;;;;;;;
2020/04/27 22:45:01;;;;;;;4.3;2.7;;;;;;;;;;;;;
2020/04/27 22:47:27;;;;;;;3.8;2.7;;;;;;;;;;;;;
2020/04/27 22:49:52;;;;;;;4.1;3.1;;;;;;;;;;;;;
2020/04/27 22:52:17;;;;;;;3.9;3;;;;;;;;;;;;;
2020/04/27 22:54:42;;;;;;;3.9;2.9;;;;;;;;;;;;;
2020/04/27 22:57:08;;;;;;;5;2.8;;;;;;;;;;;;;
2020/04/27 22:59:33;;;;;;;4;2.8;;;;;;;;;;;;;
2020/04/27 23:01:58;;;;;;;3.5;2.8;;;;;;;;;;;;;
2020/04/27 23:04:24;;;;;;;4.4;2.9;;;;;;;;;;;;;
2020/04/27 23:06:49;;;;;;;4;2.9;;;;;;;;;;;;;
2020/04/27 23:09:14;;;;;;;4.5;3.2;;;;;;;;;;;;;
2020/04/27 23:11:39;;;;;;;4.7;3.2;;;;;;;;;;;;;
2020/04/27 23:14:04;;;;;;;6.8;3.2;;;;;;;;;;;;;
2020/04/27 23:16:29;;;;;;;4.2;3.2;;;;;;;;;;;;;
2020/04/27 23:18:54;;;;;;;5.7;3.5;;;;;;;;;;;;;
2020/04/27 23:21:21;;;;;;;5;3.3;;;;;;;;;;;;;